Aviation Digital Data Service (ADDS)

Output produced by METARs form (1653 UTC 20 January 2019)
found at http://www.aviationweather.gov/metar/data/
 
TAF HBBA 201100Z 2012/2118 18010G25KT 9999 FEW030 BKN100 
     PROB30 
     TEMPO 2013/2015 7000 FEW030 CB SHRA OR TSRA 
     BECMG 2017/2019 VRB02KT 9999 FEW080 
     BECMG 2102/2104 36003KT CAVOK 
     BECMG 2107/2109 18010G30KT 9999 FEW030 BKN100